createdAt,value
2023-03-11T00:00:28.878Z,3.55
2023-03-11T00:02:58.732Z,1.83
2023-03-11T00:05:28.958Z,4.07
2023-03-11T00:07:57.661Z,5.10
2023-03-11T00:10:34.604Z,3.47
2023-03-11T00:13:03.934Z,2.55
2023-03-11T00:15:32.425Z,2.40
2023-03-11T00:18:03.188Z,2.22
2023-03-11T00:20:37.817Z,2.35
2023-03-11T00:23:07.481Z,1.58
2023-03-11T00:25:37.668Z,5.15
2023-03-11T00:28:10.700Z,1.95
2023-03-11T00:31:17.178Z,3.53
2023-03-11T00:33:46.068Z,1.55
2023-03-11T00:36:34.087Z,4.80
2023-03-11T00:39:06.762Z,2.42
2023-03-11T00:41:35.870Z,1.92
2023-03-11T00:44:06.986Z,1.60
2023-03-11T00:46:34.748Z,4.35
2023-03-11T00:49:02.617Z,9.82
2023-03-11T00:51:32.017Z,3.35
2023-03-11T00:54:01.491Z,7.88
2023-03-11T00:56:31.465Z,3.03
2023-03-11T00:58:59.606Z,2.33
2023-03-11T01:01:27.899Z,2.08
2023-03-11T01:03:55.788Z,2.75
2023-03-11T01:06:26.133Z,1.30
2023-03-11T01:08:55.831Z,3.38
2023-03-11T01:11:23.682Z,2.85
2023-03-11T01:13:51.455Z,1.42
2023-03-11T01:16:19.576Z,2.40
2023-03-11T01:18:47.940Z,2.15
2023-03-11T01:21:15.987Z,1.30
2023-03-11T01:23:46.293Z,2.90
2023-03-11T01:26:15.722Z,3.28
2023-03-11T01:28:43.440Z,1.98
2023-03-11T01:31:11.342Z,1.30
2023-03-11T01:33:40.458Z,2.17
2023-03-11T01:36:09.383Z,4.13
2023-03-11T01:38:39.368Z,1.40
2023-03-11T01:41:09.693Z,1.75
2023-03-11T01:43:41.121Z,1.10
2023-03-11T01:46:26.049Z,1.45
2023-03-11T01:49:13.259Z,2.33
2023-03-11T01:51:51.374Z,1.38
2023-03-11T01:54:41.669Z,3.92
2023-03-11T01:57:13.529Z,1.88
2023-03-11T01:59:57.415Z,1.83
2023-03-11T02:05:05.145Z,1.55
2023-03-11T02:07:33.359Z,1.27
2023-03-11T02:10:03.308Z,6.40
2023-03-11T02:12:36.490Z,2.35
2023-03-11T02:17:36.811Z,1.38
2023-03-11T02:20:22.716Z,2.30
2023-03-11T02:22:50.975Z,1.52
2023-03-11T02:25:24.947Z,1.98
2023-03-11T02:27:56.060Z,4.15
2023-03-11T02:30:29.295Z,4.13
2023-03-11T02:32:57.344Z,4.05
2023-03-11T02:35:26.246Z,2.97
2023-03-11T02:37:56.204Z,8.35
2023-03-11T02:40:24.458Z,5.55
2023-03-11T02:43:02.114Z,6.20
2023-03-11T02:45:32.065Z,4.63
2023-03-11T02:48:03.790Z,3.65
2023-03-11T02:50:37.776Z,6.45
2023-03-11T02:53:06.661Z,3.63
2023-03-11T02:55:34.540Z,2.78
2023-03-11T02:58:02.689Z,4.25
2023-03-11T03:00:32.421Z,3.47
2023-03-11T03:05:32.653Z,6.25
2023-03-11T03:08:03.017Z,2.90
2023-03-11T03:10:31.334Z,4.43
2023-03-11T03:12:59.544Z,3.58
2023-03-11T03:15:27.229Z,3.70
2023-03-11T03:17:54.959Z,4.63
2023-03-11T03:20:24.318Z,3.47
2023-03-11T03:22:56.330Z,2.45
2023-03-11T03:25:28.635Z,1.92
2023-03-11T03:27:58.958Z,4.10
2023-03-11T03:30:29.684Z,3.55
2023-03-11T03:32:57.463Z,2.42
2023-03-11T03:35:25.373Z,5.55
2023-03-11T03:38:21.821Z,1.92
2023-03-11T03:40:51.731Z,1.55
2023-03-11T03:43:22.475Z,2.30
2023-03-11T03:46:03.032Z,2.25
2023-03-11T03:48:36.625Z,3.85
2023-03-11T03:51:09.762Z,2.75
2023-03-11T03:53:42.212Z,4.68
2023-03-11T03:56:12.726Z,5.90
2023-03-11T03:58:42.004Z,3.92
2023-03-11T04:01:11.470Z,6.53
2023-03-11T04:03:40.223Z,3.75
2023-03-11T04:06:22.532Z,3.67
2023-03-11T04:08:55.994Z,3.20
2023-03-11T04:11:29.000Z,3.60
2023-03-11T04:13:57.216Z,3.92
2023-03-11T04:16:25.670Z,3.05
2023-03-11T04:18:59.612Z,4.43
2023-03-11T04:21:27.791Z,1.75
2023-03-11T04:23:56.698Z,3.03
2023-03-11T04:26:30.017Z,7.47
2023-03-11T04:28:57.876Z,3.35
2023-03-11T04:31:28.258Z,4.20
2023-03-11T04:33:57.069Z,1.77
2023-03-11T04:36:25.285Z,6.55
2023-03-11T04:38:53.818Z,2.88
2023-03-11T04:41:22.848Z,2.88
2023-03-11T04:43:51.872Z,4.15
2023-03-11T04:46:20.021Z,4.50
2023-03-11T04:48:48.153Z,4.70
2023-03-11T04:51:16.860Z,2.00
2023-03-11T04:53:45.045Z,2.42
2023-03-11T04:56:13.301Z,6.50
2023-03-11T04:58:41.541Z,3.85
2023-03-11T05:01:11.724Z,3.42
2023-03-11T05:03:39.757Z,3.15
2023-03-11T05:06:14.747Z,2.10
2023-03-11T05:08:42.736Z,2.95
2023-03-11T05:11:10.773Z,2.42
2023-03-11T05:13:38.972Z,2.25
2023-03-11T05:16:07.120Z,2.15
2023-03-11T05:18:35.502Z,7.35
2023-03-11T05:21:04.310Z,1.33
2023-03-11T05:23:34.215Z,2.17
2023-03-11T05:26:03.887Z,3.45
2023-03-11T05:28:34.243Z,2.65
2023-03-11T05:31:03.115Z,3.65
2023-03-11T05:33:35.988Z,7.45
2023-03-11T05:36:08.823Z,4.05
2023-03-11T05:38:42.921Z,2.83
2023-03-11T05:41:17.927Z,4.93
2023-03-11T05:43:46.663Z,2.95
2023-03-11T05:46:15.720Z,7.03
2023-03-11T05:48:43.625Z,3.17
2023-03-11T05:51:12.950Z,3.50
2023-03-11T05:53:48.791Z,5.47
2023-03-11T05:56:23.721Z,8.68
2023-03-11T05:58:53.371Z,6.45
2023-03-11T06:01:21.441Z,8.50
2023-03-11T06:03:49.866Z,4.45
2023-03-11T06:06:18.059Z,5.53
2023-03-11T06:08:50.074Z,9.30
2023-03-11T06:11:45.273Z,5.50
2023-03-11T06:14:16.598Z,8.07
2023-03-11T06:16:46.988Z,7.72
2023-03-11T06:19:14.816Z,8.32
2023-03-11T06:21:47.597Z,5.93
2023-03-11T06:24:17.344Z,11.65
2023-03-11T06:26:52.280Z,11.77
2023-03-11T06:29:24.557Z,7.18
2023-03-11T06:31:55.470Z,5.40
2023-03-11T06:34:26.403Z,7.43
2023-03-11T06:40:12.909Z,4.25
2023-03-11T06:42:42.468Z,5.75
2023-03-11T06:45:15.894Z,3.17
2023-03-11T06:47:45.108Z,6.13
2023-03-11T06:50:13.486Z,5.93
2023-03-11T06:52:41.149Z,4.65
2023-03-11T06:55:10.218Z,5.50
2023-03-11T06:57:41.047Z,5.20
2023-03-11T07:00:12.628Z,9.63
2023-03-11T07:02:43.258Z,6.13
2023-03-11T07:05:12.742Z,4.47
2023-03-11T07:07:41.320Z,6.22
2023-03-11T07:10:10.111Z,3.92
2023-03-11T07:12:40.258Z,3.75
2023-03-11T07:15:09.478Z,4.55
2023-03-11T07:17:37.930Z,5.18
2023-03-11T07:20:06.377Z,3.85
2023-03-11T07:22:34.237Z,3.47
2023-03-11T07:25:01.849Z,4.50
2023-03-11T07:27:29.989Z,6.10
2023-03-11T07:29:57.671Z,6.57
2023-03-11T07:32:25.970Z,9.30
2023-03-11T07:34:57.035Z,6.82
2023-03-11T07:37:25.386Z,7.32
2023-03-11T07:39:53.482Z,6.30
2023-03-11T07:42:31.835Z,4.88
2023-03-11T07:45:10.790Z,5.57
2023-03-11T07:47:39.034Z,7.47
2023-03-11T07:50:07.118Z,7.43
2023-03-11T07:52:38.080Z,9.43
2023-03-11T07:55:06.440Z,11.60
2023-03-11T07:57:50.316Z,6.68
2023-03-11T08:00:19.486Z,10.15
2023-03-11T08:02:47.586Z,7.80
2023-03-11T08:05:15.439Z,7.22
2023-03-11T08:07:43.018Z,10.65
2023-03-11T08:10:11.381Z,6.30
2023-03-11T08:12:40.587Z,6.13
2023-03-11T08:15:09.464Z,8.00
2023-03-11T08:17:37.393Z,10.02
2023-03-11T08:20:08.562Z,8.65
2023-03-11T08:22:38.099Z,7.32
2023-03-11T08:25:09.251Z,13.57
2023-03-11T08:27:39.018Z,6.35
2023-03-11T08:30:08.481Z,9.32
2023-03-11T08:32:37.649Z,11.02
2023-03-11T08:35:06.294Z,10.98
2023-03-11T08:37:34.210Z,9.05
2023-03-11T08:40:02.010Z,9.23
2023-03-11T08:42:30.630Z,14.00
2023-03-11T08:44:58.929Z,14.75
2023-03-11T08:47:27.004Z,17.80
2023-03-11T08:49:56.152Z,11.38
2023-03-11T08:52:24.149Z,9.50
2023-03-11T08:54:57.550Z,12.93
2023-03-11T08:57:26.116Z,15.10
2023-03-11T08:59:54.517Z,16.02
2023-03-11T09:02:22.583Z,15.90
2023-03-11T09:04:51.017Z,14.77
2023-03-11T09:07:19.682Z,17.25
2023-03-11T09:09:53.932Z,19.23
2023-03-11T09:12:30.528Z,16.77
2023-03-11T09:14:59.516Z,12.65
2023-03-11T09:17:27.561Z,16.13
2023-03-11T09:19:57.022Z,18.60
2023-03-11T09:22:25.483Z,22.10
2023-03-11T09:24:53.097Z,26.17
2023-03-11T09:27:20.937Z,24.58
2023-03-11T09:29:48.977Z,26.98
2023-03-11T09:32:26.875Z,19.95
2023-03-11T09:34:54.746Z,20.83
2023-03-11T09:37:22.536Z,19.52
2023-03-11T09:39:51.738Z,23.10
2023-03-11T09:42:41.907Z,23.02
2023-03-11T09:45:18.351Z,25.02
2023-03-11T09:48:24.706Z,20.63
2023-03-11T09:51:01.391Z,20.40
2023-03-11T09:53:42.085Z,25.00
2023-03-11T09:56:15.265Z,20.90
2023-03-11T09:59:05.985Z,21.73
2023-03-11T10:01:39.190Z,22.17
2023-03-11T10:04:33.232Z,24.60
2023-03-11T10:07:07.228Z,23.35
2023-03-11T10:09:51.493Z,27.75
2023-03-11T10:12:45.408Z,24.90
2023-03-11T10:15:22.289Z,24.30
2023-03-11T10:18:05.415Z,22.88
2023-03-11T10:21:01.548Z,21.38
2023-03-11T10:24:16.919Z,21.50
2023-03-11T10:27:16.178Z,22.52
2023-03-11T10:29:52.641Z,29.38
2023-03-11T10:32:39.931Z,21.38
2023-03-11T10:35:24.970Z,21.45
2023-03-11T10:38:08.810Z,24.70
2023-03-11T10:40:45.488Z,21.63
2023-03-11T10:43:29.240Z,29.63
2023-03-11T10:45:57.736Z,27.88
2023-03-11T10:48:26.711Z,22.67
2023-03-11T10:51:23.139Z,23.73
2023-03-11T10:53:59.885Z,26.40
2023-03-11T10:56:35.814Z,21.40
2023-03-11T10:59:09.277Z,24.40
2023-03-11T11:01:37.661Z,26.35
2023-03-11T11:04:40.759Z,22.02
2023-03-11T11:07:39.500Z,21.95
2023-03-11T11:10:30.965Z,23.17
2023-03-11T11:13:19.320Z,28.33
2023-03-11T11:15:58.447Z,24.50
2023-03-11T11:18:40.381Z,23.20
2023-03-11T11:21:16.008Z,21.15
2023-03-11T11:23:59.280Z,23.67
2023-03-11T11:26:30.412Z,27.27
2023-03-11T11:29:15.587Z,22.15
2023-03-11T11:31:45.663Z,21.23
2023-03-11T11:34:32.818Z,25.38
2023-03-11T11:37:26.519Z,21.48
2023-03-11T11:40:30.264Z,20.50
2023-03-11T11:43:21.817Z,28.63
2023-03-11T11:45:57.566Z,20.90
2023-03-11T11:48:35.166Z,23.17
2023-03-11T11:51:15.696Z,21.42
2023-03-11T11:54:01.820Z,20.88
2023-03-11T11:56:29.662Z,20.38
2023-03-11T11:59:03.010Z,23.92
2023-03-11T12:01:46.108Z,19.63
2023-03-11T12:04:32.545Z,29.65
2023-03-11T12:07:07.200Z,31.20
2023-03-11T12:10:26.063Z,24.95
2023-03-11T12:13:06.808Z,16.75
2023-03-11T12:15:44.667Z,16.40
2023-03-11T12:18:26.555Z,22.27
2023-03-11T12:20:58.730Z,15.85
2023-03-11T12:23:53.608Z,25.50
2023-03-11T12:26:25.487Z,18.77
2023-03-11T12:29:31.926Z,19.42
2023-03-11T12:32:05.531Z,21.10
2023-03-11T12:34:36.639Z,18.83
2023-03-11T12:37:15.031Z,22.08
2023-03-11T12:39:43.593Z,22.60
2023-03-11T12:42:11.483Z,24.30
2023-03-11T12:44:44.300Z,19.58
2023-03-11T12:47:12.487Z,21.30
2023-03-11T12:49:47.787Z,19.75
2023-03-11T12:52:19.035Z,17.05
2023-03-11T12:55:13.820Z,21.05
2023-03-11T12:57:58.095Z,17.83
2023-03-11T13:00:35.462Z,18.55
2023-03-11T13:03:09.221Z,17.15
2023-03-11T13:05:48.160Z,17.85
2023-03-11T13:08:34.587Z,20.27
2023-03-11T13:11:22.821Z,19.75
2023-03-11T13:13:50.625Z,21.38
2023-03-11T13:16:20.429Z,18.13
2023-03-11T13:18:50.060Z,16.92
2023-03-11T13:21:39.410Z,15.40
2023-03-11T13:24:30.684Z,16.90
2023-03-11T13:27:00.477Z,15.52
2023-03-11T13:29:53.068Z,15.25
2023-03-11T13:32:52.161Z,18.65
2023-03-11T13:35:32.099Z,16.13
2023-03-11T13:38:37.544Z,18.98
2023-03-11T13:41:20.808Z,15.77
2023-03-11T13:43:51.319Z,15.25
2023-03-11T13:46:31.932Z,15.60
2023-03-11T13:49:15.546Z,15.30
2023-03-11T13:51:46.719Z,18.33
2023-03-11T13:54:24.014Z,13.60
2023-03-11T13:56:58.249Z,14.27
2023-03-11T13:59:29.796Z,16.50
2023-03-11T14:02:01.876Z,13.50
2023-03-11T14:04:38.097Z,15.50
2023-03-11T14:07:23.009Z,22.65
2023-03-11T14:09:51.027Z,13.02
2023-03-11T14:12:19.203Z,16.50
2023-03-11T14:14:55.184Z,15.20
2023-03-11T14:17:24.559Z,16.67
2023-03-11T14:20:08.235Z,13.88
2023-03-11T14:25:09.549Z,13.98
2023-03-11T14:27:49.190Z,14.80
2023-03-11T14:30:24.085Z,16.02
2023-03-11T14:33:19.287Z,14.13
2023-03-11T14:35:58.688Z,14.00
2023-03-11T14:38:29.827Z,14.68
2023-03-11T14:41:05.469Z,14.55
2023-03-11T14:43:39.193Z,15.32
2023-03-11T14:46:08.795Z,17.15
2023-03-11T14:48:41.235Z,19.90
2023-03-11T14:51:18.496Z,21.80
2023-03-11T14:54:03.892Z,14.35
2023-03-11T14:56:36.806Z,21.48
2023-03-11T14:59:27.507Z,19.75
2023-03-11T15:02:02.752Z,26.60
2023-03-11T15:04:38.042Z,22.10
2023-03-11T15:07:09.940Z,20.20
2023-03-11T15:09:41.243Z,18.88
2023-03-11T15:12:34.287Z,23.38
2023-03-11T15:15:04.880Z,21.00
2023-03-11T15:17:40.906Z,26.35
2023-03-11T15:20:32.265Z,23.13
2023-03-11T15:23:07.825Z,22.33
2023-03-11T15:25:39.418Z,20.88
2023-03-11T15:28:25.499Z,20.95
2023-03-11T15:31:15.859Z,25.10
2023-03-11T15:33:44.125Z,20.35
2023-03-11T15:36:32.667Z,21.77
2023-03-11T15:39:33.139Z,18.08
2023-03-11T15:42:19.965Z,23.98
2023-03-11T15:45:14.343Z,19.08
2023-03-11T15:50:24.728Z,23.52
2023-03-11T15:52:57.990Z,23.73
2023-03-11T15:55:30.362Z,22.70
2023-03-11T15:58:11.623Z,21.25
2023-03-11T16:00:42.461Z,20.67
2023-03-11T16:03:11.560Z,16.75
2023-03-11T16:05:43.728Z,23.20
2023-03-11T16:08:14.558Z,19.88
2023-03-11T16:10:43.373Z,18.48
2023-03-11T16:13:14.421Z,20.20
2023-03-11T16:15:43.500Z,21.80
2023-03-11T16:18:14.730Z,21.70
2023-03-11T16:20:52.743Z,18.90
2023-03-11T16:23:44.734Z,15.55
2023-03-11T16:26:18.273Z,17.83
2023-03-11T16:28:46.152Z,19.25
2023-03-11T16:31:14.391Z,17.67
2023-03-11T16:33:42.312Z,19.30
2023-03-11T16:36:11.284Z,17.48
2023-03-11T16:38:45.981Z,19.08
2023-03-11T16:41:17.366Z,16.10
2023-03-11T16:43:45.808Z,20.92
2023-03-11T16:46:15.068Z,24.23
2023-03-11T16:48:43.038Z,22.38
2023-03-11T16:51:11.003Z,22.83
2023-03-11T16:53:39.354Z,21.35
2023-03-11T16:56:07.639Z,23.08
2023-03-11T16:58:38.813Z,26.63
2023-03-11T17:01:06.766Z,19.65
2023-03-11T17:03:42.478Z,21.65
2023-03-11T17:06:13.311Z,25.15
2023-03-11T17:08:41.641Z,29.58
2023-03-11T17:11:20.580Z,21.70
2023-03-11T17:13:53.340Z,21.45
2023-03-11T17:16:27.233Z,20.13
2023-03-11T17:18:55.535Z,27.92
2023-03-11T17:21:24.046Z,21.80
2023-03-11T17:23:54.829Z,25.90
2023-03-11T17:26:23.348Z,24.00
2023-03-11T17:28:52.002Z,26.15
2023-03-11T17:31:19.962Z,23.40
2023-03-11T17:33:49.074Z,23.90
2023-03-11T17:36:18.676Z,26.55
2023-03-11T17:38:48.102Z,27.58
2023-03-11T17:41:17.988Z,33.22
2023-03-11T17:43:46.498Z,30.73
2023-03-11T17:46:30.471Z,29.05
2023-03-11T17:49:03.304Z,31.27
2023-03-11T17:51:31.037Z,28.88
2023-03-11T17:53:59.926Z,28.08
2023-03-11T17:56:58.147Z,30.73
2023-03-11T17:59:35.322Z,28.90
2023-03-11T18:02:05.906Z,36.55
2023-03-11T18:04:34.124Z,36.33
2023-03-11T18:07:04.658Z,28.63
2023-03-11T18:09:32.655Z,34.25
2023-03-11T18:12:00.288Z,32.05
2023-03-11T18:14:28.357Z,31.65
2023-03-11T18:16:56.883Z,29.05
2023-03-11T18:19:25.389Z,32.67
2023-03-11T18:21:53.599Z,34.45
2023-03-11T18:24:21.450Z,32.03
2023-03-11T18:26:49.360Z,32.10
2023-03-11T18:29:17.137Z,31.15
2023-03-11T18:31:45.125Z,34.47
2023-03-11T18:34:13.746Z,29.05
2023-03-11T18:36:42.536Z,32.78
2023-03-11T18:39:14.210Z,34.47
2023-03-11T18:41:43.059Z,36.00
2023-03-11T18:44:11.416Z,33.15
2023-03-11T18:46:41.589Z,34.83
2023-03-11T18:49:14.180Z,38.55
2023-03-11T18:51:42.341Z,33.27
2023-03-11T18:54:10.741Z,33.83
2023-03-11T18:56:38.616Z,31.13
2023-03-11T18:59:12.260Z,34.38
2023-03-11T19:01:40.419Z,34.90
2023-03-11T19:04:10.581Z,28.08
2023-03-11T19:06:38.438Z,30.10
2023-03-11T19:09:06.980Z,28.05
2023-03-11T19:11:35.205Z,30.90
2023-03-11T19:14:02.984Z,37.08
2023-03-11T19:16:30.765Z,35.35
2023-03-11T19:18:58.476Z,38.50
2023-03-11T19:21:26.900Z,32.38
2023-03-11T19:23:56.712Z,31.23
2023-03-11T19:26:41.447Z,35.17
2023-03-11T19:29:10.264Z,35.20
2023-03-11T19:31:43.621Z,32.25
2023-03-11T19:34:11.710Z,30.98
2023-03-11T19:36:39.665Z,31.13
2023-03-11T19:39:07.658Z,40.72
2023-03-11T19:41:36.056Z,35.33
2023-03-11T19:44:04.523Z,32.97
2023-03-11T19:46:34.956Z,29.63
2023-03-11T19:49:04.228Z,26.63
2023-03-11T19:51:46.590Z,27.42
2023-03-11T19:54:16.693Z,29.30
2023-03-11T19:56:44.493Z,31.33
2023-03-11T19:59:12.261Z,33.05
2023-03-11T20:01:42.557Z,39.88
2023-03-11T20:04:10.866Z,36.70
2023-03-11T20:06:39.276Z,40.97
2023-03-11T20:09:07.228Z,49.40
2023-03-11T20:11:39.992Z,58.92
2023-03-11T20:14:09.782Z,51.45
2023-03-11T20:16:37.801Z,48.90
2023-03-11T20:19:05.466Z,43.92
2023-03-11T20:21:33.663Z,42.67
2023-03-11T20:24:01.655Z,47.13
2023-03-11T20:26:29.418Z,43.60
2023-03-11T20:28:58.580Z,50.55
2023-03-11T20:31:29.870Z,50.58
2023-03-11T20:33:59.342Z,44.50
2023-03-11T20:36:30.085Z,45.78
2023-03-11T20:38:58.173Z,40.88
2023-03-11T20:41:30.414Z,39.85
2023-03-11T20:44:01.187Z,39.08
2023-03-11T20:46:28.921Z,40.15
2023-03-11T20:48:56.853Z,40.63
2023-03-11T20:51:25.425Z,33.35
2023-03-11T20:53:53.902Z,34.47
2023-03-11T20:56:24.973Z,41.85
2023-03-11T20:58:56.036Z,35.33
2023-03-11T21:01:28.198Z,40.13
2023-03-11T21:03:59.719Z,34.28
2023-03-11T21:06:32.662Z,36.00
2023-03-11T21:09:03.606Z,30.80
2023-03-11T21:11:32.297Z,29.58
2023-03-11T21:14:00.688Z,28.63
2023-03-11T21:16:28.491Z,24.05
2023-03-11T21:18:56.946Z,23.17
2023-03-11T21:21:24.751Z,25.38
2023-03-11T21:23:52.977Z,23.90
2023-03-11T21:26:20.811Z,19.80
2023-03-11T21:28:49.437Z,25.63
2023-03-11T21:31:20.577Z,24.17
2023-03-11T21:33:49.322Z,15.05
2023-03-11T21:36:17.474Z,21.17
2023-03-11T21:38:47.326Z,19.05
2023-03-11T21:41:26.075Z,15.07
2023-03-11T21:43:55.193Z,18.33
2023-03-11T21:46:26.926Z,17.45
2023-03-11T21:48:55.406Z,20.25
2023-03-11T21:51:23.396Z,18.48
2023-03-11T21:53:51.465Z,13.63
2023-03-11T21:56:19.930Z,15.10
2023-03-11T21:58:53.351Z,15.02
2023-03-11T22:01:21.588Z,16.75
2023-03-11T22:03:49.470Z,12.88
2023-03-11T22:06:17.604Z,13.35
2023-03-11T22:08:45.931Z,14.35
2023-03-11T22:11:19.072Z,10.68
2023-03-11T22:13:49.125Z,11.52
2023-03-11T22:16:19.123Z,14.60
2023-03-11T22:18:47.447Z,18.60
2023-03-11T22:21:16.344Z,14.30
2023-03-11T22:23:45.672Z,12.10
2023-03-11T22:26:14.552Z,15.15
2023-03-11T22:28:43.149Z,12.10
2023-03-11T22:31:13.376Z,13.35
2023-03-11T22:33:43.470Z,12.52
2023-03-11T22:36:11.266Z,11.25
2023-03-11T22:38:41.899Z,13.90
2023-03-11T22:41:11.119Z,13.32
2023-03-11T22:43:39.491Z,12.88
2023-03-11T22:46:07.876Z,15.70
2023-03-11T22:48:36.115Z,12.48
2023-03-11T22:51:05.793Z,15.10
2023-03-11T22:53:34.181Z,15.82
2023-03-11T22:56:10.443Z,14.20
2023-03-11T22:58:38.859Z,15.70
2023-03-11T23:01:07.414Z,9.70
2023-03-11T23:03:36.341Z,13.07
2023-03-11T23:06:07.746Z,12.27
2023-03-11T23:08:35.984Z,11.98
2023-03-11T23:11:14.546Z,11.20
2023-03-11T23:13:43.902Z,10.38
2023-03-11T23:16:16.470Z,13.35
2023-03-11T23:18:46.226Z,10.48
2023-03-11T23:21:35.760Z,11.35
2023-03-11T23:24:09.387Z,8.57
2023-03-11T23:26:43.310Z,12.45
2023-03-11T23:29:12.396Z,12.88
2023-03-11T23:31:40.540Z,9.77
2023-03-11T23:34:08.917Z,9.77
2023-03-11T23:36:39.056Z,6.72
2023-03-11T23:39:06.752Z,10.20
2023-03-11T23:41:35.979Z,11.30
2023-03-11T23:44:04.282Z,5.65
2023-03-11T23:46:32.524Z,9.38
2023-03-11T23:49:01.402Z,4.80
2023-03-11T23:51:29.291Z,4.32
2023-03-11T23:53:56.849Z,6.05
2023-03-11T23:56:25.004Z,6.10
2023-03-11T23:58:52.783Z,5.57
